Time;durP1;ratioP1;P1;durP2;ratioP2;P2;SDS_P1;SDS_P2;PMS_P1;PMS_P2;Temp;Humidity;BMP_temperature;BMP_pressure;BME280_temperature;BME280_humidity;BME280_pressure;Samples;Min_cycle;Max_cycle;Signal;HPM_P1;HPM_P2
2023/10/04 00:00:19;;;;;;;;;;;13.30;83.60;;;;;;5079799;28;19977;-81
2023/10/04 00:02:45;;;;;;;;;;;13.30;83.50;;;;;;5077347;28;20266;-80
2023/10/04 00:05:14;;;;;;;;;;;13.30;83.50;;;;;;5079740;28;19916;-81
2023/10/04 00:07:41;;;;;;;;;;;13.30;84.10;;;;;;5071796;28;19958;-80
2023/10/04 00:10:07;;;;;;;;;;;13.30;83.70;;;;;;5077886;28;19923;-80
2023/10/04 00:12:32;;;;;;;;;;;13.30;83.60;;;;;;5076984;28;20288;-80
2023/10/04 00:14:58;;;;;;;;;;;13.30;83.60;;;;;;5077992;28;20347;-80
2023/10/04 00:17:24;;;;;;;;;;;13.30;83.80;;;;;;5078656;28;19915;-80
2023/10/04 00:19:49;;;;;;;;;;;13.30;83.40;;;;;;5077879;28;20003;-81
2023/10/04 00:22:18;;;;;;;;;;;13.30;83.70;;;;;;5077877;28;19959;-80
2023/10/04 00:24:44;;;;;;;;;;;13.30;83.80;;;;;;5077045;28;20369;-80
2023/10/04 00:27:10;;;;;;;;;;;13.30;83.80;;;;;;5076669;28;19919;-80
2023/10/04 00:29:36;;;;;;;;;;;13.20;84.40;;;;;;5078597;28;19913;-80
2023/10/04 00:32:03;;;;;;;;;;;13.30;83.80;;;;;;5079941;28;19908;-78
2023/10/04 00:34:29;;;;;;;;;;;13.30;83.50;;;;;;5080116;28;19915;-81
2023/10/04 00:36:55;;;;;;;;;;;13.20;83.90;;;;;;5079768;28;19952;-81
2023/10/04 00:39:20;;;;;;;;;;;13.20;84.20;;;;;;5079533;28;19912;-80
2023/10/04 00:41:47;;;;;;;;;;;13.10;84.40;;;;;;5077244;28;20734;-80
2023/10/04 00:44:12;;;;;;;;;;;13.20;84.30;;;;;;5076646;28;20338;-79
2023/10/04 00:46:41;;;;;;;;;;;13.20;84.60;;;;;;5077578;28;19983;-80
2023/10/04 00:49:08;;;;;;;;;;;13.20;84.40;;;;;;5074274;28;19916;-81
2023/10/04 00:51:36;;;;;;;;;;;13.30;84.30;;;;;;5076712;28;19908;-80
2023/10/04 00:54:07;;;;;;;;;;;13.10;84.60;;;;;;5078700;28;19908;-81
2023/10/04 00:56:34;;;;;;;;;;;13.10;84.90;;;;;;5078714;28;19995;-80
2023/10/04 00:59:00;;;;;;;;;;;13.20;84.40;;;;;;5075750;28;19920;-81
2023/10/04 01:01:26;;;;;;;;;;;13.20;84.30;;;;;;5076963;28;19917;-80
2023/10/04 01:03:51;;;;;;;;;;;13.20;84.30;;;;;;5075597;28;19921;-80
2023/10/04 01:06:19;;;;;;;;;;;13.20;84.40;;;;;;5076475;28;19909;-80
2023/10/04 01:08:47;;;;;;;;;;;13.20;84.30;;;;;;5074872;28;20325;-79
2023/10/04 01:11:12;;;;;;;;;;;13.20;84.40;;;;;;5077112;28;19977;-80
2023/10/04 01:13:39;;;;;;;;;;;13.20;84.20;;;;;;5076785;28;19921;-80
2023/10/04 01:16:09;;;;;;;;;;;13.10;84.30;;;;;;5076131;28;19912;-80
2023/10/04 01:18:34;;;;;;;;;;;13.10;84.70;;;;;;5075184;28;19908;-81
2023/10/04 01:21:00;;;;;;;;;;;13.10;84.50;;;;;;5075531;28;19921;-80
2023/10/04 01:23:25;;;;;;;;;;;13.10;84.50;;;;;;5077995;28;19944;-80
2023/10/04 01:25:51;;;;;;;;;;;13.20;84.20;;;;;;5078544;28;19913;-80
2023/10/04 01:28:17;;;;;;;;;;;13.10;84.70;;;;;;5076543;28;19958;-81
2023/10/04 01:30:43;;;;;;;;;;;13.10;84.50;;;;;;5076201;28;19909;-80
2023/10/04 01:33:18;;;;;;;;;;;13.10;84.60;;;;;;5077740;28;20369;-80
2023/10/04 01:35:45;;;;;;;;;;;13.10;84.70;;;;;;5074691;28;19984;-80
2023/10/04 01:38:11;;;;;;;;;;;13.10;85.00;;;;;;5076838;28;20019;-80
2023/10/04 01:40:39;;;;;;;;;;;13.10;85.30;;;;;;5077515;28;20377;-81
2023/10/04 01:43:15;;;;;;;;;;;13.10;85.00;;;;;;5071761;28;19908;-80
2023/10/04 01:45:59;;;;;;;;;;;13.10;84.90;;;;;;5075493;28;20014;-80
2023/10/04 01:48:34;;;;;;;;;;;13.00;84.90;;;;;;5073059;28;19912;-81
2023/10/04 01:51:02;;;;;;;;;;;12.90;85.10;;;;;;5093306;28;20420;-81
2023/10/04 01:53:29;;;;;;;;;;;13.00;85.50;;;;;;5075506;28;20027;-80
2023/10/04 01:55:54;;;;;;;;;;;13.00;85.20;;;;;;5076377;28;20332;-80
2023/10/04 01:58:23;;;;;;;;;;;13.00;85.20;;;;;;5077117;28;19908;-81
2023/10/04 02:01:00;;;;;;;;;;;13.10;85.30;;;;;;5075837;28;19912;-80
2023/10/04 02:03:27;;;;;;;;;;;13.10;85.00;;;;;;5074694;28;19917;-80
2023/10/04 02:05:59;;;;;;;;;;;13.10;85.00;;;;;;5091653;28;19916;-80
2023/10/04 02:08:25;;;;;;;;;;;13.10;84.60;;;;;;5075060;28;19954;-81
2023/10/04 02:10:51;;;;;;;;;;;13.10;84.90;;;;;;5075924;28;19912;-80
2023/10/04 02:13:17;;;;;;;;;;;13.20;84.70;;;;;;5076824;28;19927;-80
2023/10/04 02:15:51;;;;;;;;;;;13.10;85.10;;;;;;5076818;28;19912;-80
2023/10/04 02:18:18;;;;;;;;;;;13.20;85.10;;;;;;5075397;28;19972;-80
2023/10/04 02:20:48;;;;;;;;;;;13.20;85.00;;;;;;5076485;28;19930;-80
2023/10/04 02:23:14;;;;;;;;;;;13.30;84.90;;;;;;5077176;28;19912;-81
2023/10/04 02:25:40;;;;;;;;;;;13.30;84.70;;;;;;5075319;28;19918;-80
2023/10/04 02:28:17;;;;;;;;;;;13.30;84.60;;;;;;5075461;28;19920;-80
2023/10/04 02:30:45;;;;;;;;;;;13.20;84.70;;;;;;5075889;28;19913;-80
2023/10/04 02:33:13;;;;;;;;;;;13.30;84.40;;;;;;5076777;28;20312;-80
2023/10/04 02:35:44;;;;;;;;;;;13.30;84.80;;;;;;5074948;28;19982;-80
2023/10/04 02:41:05;;;;;;;;;;;13.30;84.80;;;;;;5067006;28;19948;-80
2023/10/04 02:43:32;;;;;;;;;;;13.30;84.60;;;;;;5077611;28;19935;-79
2023/10/04 02:45:58;;;;;;;;;;;13.30;84.80;;;;;;5081702;28;19908;-80
2023/10/04 02:48:24;;;;;;;;;;;13.30;84.80;;;;;;5080341;28;19920;-81
2023/10/04 02:50:49;;;;;;;;;;;13.30;85.40;;;;;;5078801;28;19912;-79
2023/10/04 02:53:20;;;;;;;;;;;13.30;85.30;;;;;;5079756;28;19954;-81
2023/10/04 02:55:46;;;;;;;;;;;13.30;84.70;;;;;;5080675;28;20136;-79
2023/10/04 02:58:13;;;;;;;;;;;13.30;84.80;;;;;;5080511;28;19909;-80
2023/10/04 03:00:50;;;;;;;;;;;13.40;84.70;;;;;;5078016;28;19909;-80
2023/10/04 03:03:21;;;;;;;;;;;13.40;85.00;;;;;;5068750;28;19913;-79
2023/10/04 03:05:47;;;;;;;;;;;13.50;84.60;;;;;;5075249;28;20358;-80
2023/10/04 03:08:13;;;;;;;;;;;13.40;84.40;;;;;;5074189;28;19918;-80
2023/10/04 03:10:39;;;;;;;;;;;13.40;84.60;;;;;;5074022;28;19913;-80
2023/10/04 03:13:12;;;;;;;;;;;13.50;84.50;;;;;;5066472;28;19916;-80
2023/10/04 03:15:38;;;;;;;;;;;13.50;84.40;;;;;;5075640;28;19915;-81
2023/10/04 03:18:13;;;;;;;;;;;13.50;84.70;;;;;;5076053;28;19960;-80
2023/10/04 03:23:21;;;;;;;;;;;13.40;85.10;;;;;;5065154;28;19971;-80
2023/10/04 03:25:49;;;;;;;;;;;13.50;84.80;;;;;;5073520;28;19912;-80
2023/10/04 03:28:15;;;;;;;;;;;13.50;84.80;;;;;;5073765;28;20262;-81
2023/10/04 03:30:44;;;;;;;;;;;13.40;85.10;;;;;;5076676;28;19909;-80
2023/10/04 03:33:10;;;;;;;;;;;13.50;85.10;;;;;;5075555;28;19909;-81
2023/10/04 03:35:39;;;;;;;;;;;13.40;84.70;;;;;;5085190;28;19915;-79
2023/10/04 03:38:05;;;;;;;;;;;13.50;85.00;;;;;;5087215;28;19909;-79
2023/10/04 03:40:38;;;;;;;;;;;13.50;84.80;;;;;;5083172;28;19916;-79
2023/10/04 03:43:07;;;;;;;;;;;13.50;85.20;;;;;;5075314;28;19931;-80
2023/10/04 03:45:40;;;;;;;;;;;13.60;84.90;;;;;;5074186;28;19995;-81
2023/10/04 03:48:10;;;;;;;;;;;13.50;84.80;;;;;;5074410;28;20166;-80
2023/10/04 03:50:36;;;;;;;;;;;13.50;84.90;;;;;;5072980;28;20007;-81
2023/10/04 03:53:01;;;;;;;;;;;13.50;85.20;;;;;;5073868;28;20356;-80
2023/10/04 03:55:27;;;;;;;;;;;13.50;84.90;;;;;;5074674;28;19909;-80
2023/10/04 03:57:53;;;;;;;;;;;13.60;84.80;;;;;;5071639;28;19908;-80
2023/10/04 04:00:21;;;;;;;;;;;13.50;85.00;;;;;;5074327;28;19988;-79
2023/10/04 04:02:48;;;;;;;;;;;13.50;84.90;;;;;;5074157;28;19908;-79
2023/10/04 04:05:20;;;;;;;;;;;13.50;85.20;;;;;;5074671;28;19916;-79
2023/10/04 04:07:46;;;;;;;;;;;13.50;85.60;;;;;;5068048;28;19978;-79
2023/10/04 04:10:16;;;;;;;;;;;13.50;85.00;;;;;;5072993;28;19913;-80
2023/10/04 04:12:42;;;;;;;;;;;13.50;84.90;;;;;;5071911;28;19909;-80
2023/10/04 04:15:08;;;;;;;;;;;13.40;85.20;;;;;;5072724;28;19912;-81
2023/10/04 04:17:35;;;;;;;;;;;13.50;85.00;;;;;;5074067;28;19908;-81
2023/10/04 04:20:03;;;;;;;;;;;13.40;85.10;;;;;;5072657;28;19917;-80
2023/10/04 04:22:28;;;;;;;;;;;13.40;85.20;;;;;;5073874;28;20388;-81
2023/10/04 04:24:54;;;;;;;;;;;13.30;85.20;;;;;;5074266;28;19916;-81
2023/10/04 04:27:22;;;;;;;;;;;13.40;85.30;;;;;;5072807;28;19908;-80
2023/10/04 04:29:54;;;;;;;;;;;13.30;85.30;;;;;;5070512;28;19912;-80
2023/10/04 04:32:26;;;;;;;;;;;13.20;85.70;;;;;;5072151;28;19919;-80
2023/10/04 04:34:53;;;;;;;;;;;13.20;86.20;;;;;;5073524;28;19912;-80
2023/10/04 04:37:19;;;;;;;;;;;13.20;86.10;;;;;;5078088;28;19919;-81
2023/10/04 04:39:45;;;;;;;;;;;13.20;86.10;;;;;;5077661;28;20369;-80
2023/10/04 04:42:11;;;;;;;;;;;13.20;86.10;;;;;;5076853;28;19919;-79
2023/10/04 04:44:42;;;;;;;;;;;13.20;85.90;;;;;;5075884;28;19912;-79
2023/10/04 04:47:08;;;;;;;;;;;13.20;85.90;;;;;;5075349;28;20404;-80
2023/10/04 04:49:34;;;;;;;;;;;13.30;85.90;;;;;;5075868;28;20405;-80
2023/10/04 04:52:02;;;;;;;;;;;13.30;85.80;;;;;;5076843;28;19924;-80
2023/10/04 04:54:28;;;;;;;;;;;13.30;85.80;;;;;;5075130;28;19992;-79
2023/10/04 04:56:53;;;;;;;;;;;13.20;85.70;;;;;;5076866;28;20395;-79
2023/10/04 04:59:21;;;;;;;;;;;13.20;85.80;;;;;;5077161;28;19908;-79
2023/10/04 05:01:47;;;;;;;;;;;13.20;85.80;;;;;;5077071;28;19913;-79
2023/10/04 05:04:13;;;;;;;;;;;13.20;85.90;;;;;;5069757;28;19923;-79
2023/10/04 05:06:39;;;;;;;;;;;13.20;85.80;;;;;;5073613;28;19983;-80
2023/10/04 05:09:05;;;;;;;;;;;13.10;86.00;;;;;;5075027;28;19952;-80
2023/10/04 05:11:31;;;;;;;;;;;13.10;86.50;;;;;;5075013;28;19916;-79
2023/10/04 05:13:57;;;;;;;;;;;13.10;86.40;;;;;;5076079;28;19917;-80
2023/10/04 05:16:25;;;;;;;;;;;13.10;86.50;;;;;;5076949;28;19908;-80
2023/10/04 05:18:51;;;;;;;;;;;13.10;86.10;;;;;;5074104;28;20039;-81
2023/10/04 05:21:16;;;;;;;;;;;13.10;86.30;;;;;;5076082;28;20001;-81
2023/10/04 05:23:41;;;;;;;;;;;13.00;86.40;;;;;;5075824;28;19908;-80
2023/10/04 05:26:08;;;;;;;;;;;13.10;86.30;;;;;;5076345;28;20444;-81
2023/10/04 05:28:35;;;;;;;;;;;13.00;86.30;;;;;;5075723;28;19920;-81
2023/10/04 05:31:00;;;;;;;;;;;13.00;86.50;;;;;;5076035;28;19916;-80
2023/10/04 05:33:26;;;;;;;;;;;13.00;86.30;;;;;;5072770;28;19921;-80
2023/10/04 05:35:55;;;;;;;;;;;13.00;86.20;;;;;;5073925;28;19913;-80
2023/10/04 05:38:20;;;;;;;;;;;13.00;86.30;;;;;;5072537;28;19975;-79
2023/10/04 05:40:49;;;;;;;;;;;12.90;86.80;;;;;;5075432;28;19979;-80
2023/10/04 05:43:16;;;;;;;;;;;12.90;86.60;;;;;;5071224;28;20011;-80
2023/10/04 05:45:42;;;;;;;;;;;12.90;86.70;;;;;;5067168;28;19966;-79
2023/10/04 05:48:09;;;;;;;;;;;12.90;86.70;;;;;;5070845;28;20383;-81
2023/10/04 05:50:34;;;;;;;;;;;12.80;86.80;;;;;;5071032;28;19943;-80
2023/10/04 05:53:04;;;;;;;;;;;12.80;87.00;;;;;;5073245;28;19924;-79
2023/10/04 05:55:29;;;;;;;;;;;12.80;87.00;;;;;;5073234;28;19975;-79
2023/10/04 05:57:55;;;;;;;;;;;12.80;86.90;;;;;;5072222;28;19924;-81
2023/10/04 06:02:51;;;;;;;;;;;12.80;87.30;;;;;;5072650;28;21264;-81
2023/10/04 06:05:16;;;;;;;;;;;12.80;87.20;;;;;;5073166;28;19974;-81
2023/10/04 06:07:42;;;;;;;;;;;12.80;87.10;;;;;;5072853;28;19917;-80
2023/10/04 06:10:08;;;;;;;;;;;12.80;87.00;;;;;;5076307;28;19918;-80
2023/10/04 06:12:36;;;;;;;;;;;12.80;87.20;;;;;;5075211;28;20638;-81
2023/10/04 06:15:02;;;;;;;;;;;12.80;87.10;;;;;;5073846;28;19940;-81
2023/10/04 06:17:28;;;;;;;;;;;12.80;87.30;;;;;;5074997;28;19908;-81
2023/10/04 06:19:54;;;;;;;;;;;12.80;87.20;;;;;;5070955;28;20327;-81
2023/10/04 06:22:19;;;;;;;;;;;12.80;87.10;;;;;;5071829;28;19944;-81
2023/10/04 06:24:45;;;;;;;;;;;12.80;87.20;;;;;;5074320;28;19920;-81
2023/10/04 06:27:11;;;;;;;;;;;12.80;87.40;;;;;;5074427;28;19917;-81
2023/10/04 06:29:36;;;;;;;;;;;12.80;87.50;;;;;;5072499;28;19916;-81
2023/10/04 06:32:03;;;;;;;;;;;12.90;87.30;;;;;;5072742;28;19913;-81
2023/10/04 06:34:28;;;;;;;;;;;12.80;87.20;;;;;;5072185;28;19912;-81
2023/10/04 06:36:54;;;;;;;;;;;12.90;87.10;;;;;;5073329;28;19970;-81
2023/10/04 06:39:19;;;;;;;;;;;13.00;87.10;;;;;;5073652;28;20366;-81
2023/10/04 06:41:44;;;;;;;;;;;13.00;87.10;;;;;;5073395;28;19983;-81
2023/10/04 06:44:10;;;;;;;;;;;13.00;87.00;;;;;;5074212;28;20408;-81
2023/10/04 06:46:36;;;;;;;;;;;13.10;86.90;;;;;;5070673;28;19939;-81
2023/10/04 06:49:02;;;;;;;;;;;13.10;86.80;;;;;;5074543;28;19967;-81
2023/10/04 06:51:28;;;;;;;;;;;13.00;86.80;;;;;;5074111;28;19912;-81
2023/10/04 06:53:53;;;;;;;;;;;13.10;86.60;;;;;;5075502;28;19914;-81
2023/10/04 06:56:18;;;;;;;;;;;13.10;86.80;;;;;;5075777;28;19962;-81
2023/10/04 06:58:44;;;;;;;;;;;13.10;87.00;;;;;;5074449;28;19908;-81
2023/10/04 07:01:10;;;;;;;;;;;13.10;86.50;;;;;;5074517;28;20282;-81
2023/10/04 07:03:35;;;;;;;;;;;13.20;86.30;;;;;;5074721;28;20144;-79
2023/10/04 07:06:01;;;;;;;;;;;13.20;86.40;;;;;;5076719;28;19969;-81
2023/10/04 07:08:32;;;;;;;;;;;13.20;86.30;;;;;;5069049;28;19924;-81
2023/10/04 07:11:00;;;;;;;;;;;13.20;86.20;;;;;;5072549;28;19920;-81
2023/10/04 07:13:28;;;;;;;;;;;13.30;86.10;;;;;;5070978;28;19924;-81
2023/10/04 07:15:53;;;;;;;;;;;13.30;86.00;;;;;;5074478;28;19995;-81
2023/10/04 07:18:19;;;;;;;;;;;13.40;85.80;;;;;;5074737;28;19962;-81
2023/10/04 07:20:44;;;;;;;;;;;13.40;85.80;;;;;;5074768;28;19908;-80
2023/10/04 07:23:10;;;;;;;;;;;13.50;85.80;;;;;;5072438;28;19919;-81
2023/10/04 07:25:41;;;;;;;;;;;13.50;85.70;;;;;;5069807;28;19927;-79
2023/10/04 07:28:11;;;;;;;;;;;13.50;85.80;;;;;;5072063;28;19925;-81
2023/10/04 07:30:37;;;;;;;;;;;13.50;85.80;;;;;;5067802;28;19916;-80
2023/10/04 07:33:03;;;;;;;;;;;13.60;85.60;;;;;;5072018;28;19920;-81
2023/10/04 07:35:29;;;;;;;;;;;13.60;85.40;;;;;;5065681;28;19912;-81
2023/10/04 07:37:55;;;;;;;;;;;13.60;85.70;;;;;;5072546;28;19979;-80
2023/10/04 07:40:21;;;;;;;;;;;13.70;85.40;;;;;;5073417;28;19919;-79
2023/10/04 07:42:47;;;;;;;;;;;13.70;85.00;;;;;;5069301;28;20006;-81
2023/10/04 07:45:13;;;;;;;;;;;13.80;84.80;;;;;;5074286;28;19912;-81
2023/10/04 07:47:41;;;;;;;;;;;13.80;84.80;;;;;;5073545;28;20336;-80
2023/10/04 07:50:09;;;;;;;;;;;13.90;84.70;;;;;;5066311;28;19923;-80
2023/10/04 07:52:35;;;;;;;;;;;13.90;84.60;;;;;;5071416;28;19919;-80
2023/10/04 07:55:01;;;;;;;;;;;14.00;84.00;;;;;;5070919;28;19916;-81
2023/10/04 07:57:27;;;;;;;;;;;14.00;84.00;;;;;;5076428;28;19916;-81
2023/10/04 07:59:52;;;;;;;;;;;14.10;84.20;;;;;;5072663;28;20336;-80
2023/10/04 08:02:18;;;;;;;;;;;14.00;84.40;;;;;;5071433;28;19912;-80
2023/10/04 08:04:45;;;;;;;;;;;14.00;84.20;;;;;;5070094;28;19913;-81
2023/10/04 08:07:12;;;;;;;;;;;14.10;83.80;;;;;;5074363;28;19931;-80
2023/10/04 08:09:38;;;;;;;;;;;14.10;83.90;;;;;;5099827;28;19912;-80
2023/10/04 08:12:07;;;;;;;;;;;14.00;84.10;;;;;;5085458;28;19917;-79
2023/10/04 08:14:33;;;;;;;;;;;14.10;83.40;;;;;;5081281;28;19916;-78
2023/10/04 08:16:59;;;;;;;;;;;14.10;83.60;;;;;;5078377;28;19999;-80
2023/10/04 08:19:26;;;;;;;;;;;14.20;83.50;;;;;;5077529;28;19908;-81
2023/10/04 08:21:51;;;;;;;;;;;14.30;83.30;;;;;;5076372;28;19978;-79
2023/10/04 08:24:17;;;;;;;;;;;14.30;83.20;;;;;;5077985;28;19912;-81
2023/10/04 08:26:42;;;;;;;;;;;14.30;83.20;;;;;;5076401;28;19917;-79
2023/10/04 08:29:08;;;;;;;;;;;14.30;83.30;;;;;;5074856;28;19917;-79
2023/10/04 08:31:34;;;;;;;;;;;14.40;83.30;;;;;;5076400;28;19915;-80
2023/10/04 08:33:59;;;;;;;;;;;14.50;82.90;;;;;;5075953;28;19939;-81
2023/10/04 08:36:25;;;;;;;;;;;14.50;82.60;;;;;;5073021;28;19912;-81
2023/10/04 08:38:50;;;;;;;;;;;14.50;82.70;;;;;;5074655;28;19918;-80
2023/10/04 08:41:18;;;;;;;;;;;14.60;82.10;;;;;;5075505;28;19988;-80
2023/10/04 08:43:44;;;;;;;;;;;14.60;82.10;;;;;;5075812;28;19966;-80
2023/10/04 08:46:10;;;;;;;;;;;14.70;82.20;;;;;;5074283;28;20377;-81
2023/10/04 08:48:36;;;;;;;;;;;14.70;81.90;;;;;;5073357;28;19927;-79
2023/10/04 08:51:04;;;;;;;;;;;14.60;81.80;;;;;;5074923;28;19917;-81
2023/10/04 08:53:49;;;;;;;;;;;14.80;81.60;;;;;;5075062;28;19919;-80
2023/10/04 08:56:16;;;;;;;;;;;14.90;81.80;;;;;;5070617;28;19915;-81
2023/10/04 08:58:45;;;;;;;;;;;14.90;81.50;;;;;;5073488;28;19912;-80
2023/10/04 09:01:13;;;;;;;;;;;15.00;81.10;;;;;;5074492;28;19912;-79
2023/10/04 09:03:40;;;;;;;;;;;15.00;81.10;;;;;;5077607;28;19912;-80
2023/10/04 09:06:10;;;;;;;;;;;15.00;81.00;;;;;;5067931;28;19913;-79
2023/10/04 09:08:37;;;;;;;;;;;15.10;80.20;;;;;;5070765;28;19923;-80
2023/10/04 09:11:08;;;;;;;;;;;15.10;80.00;;;;;;5071440;28;19918;-78
2023/10/04 09:13:34;;;;;;;;;;;15.20;80.00;;;;;;5074236;28;19978;-78
2023/10/04 09:16:16;;;;;;;;;;;15.20;79.90;;;;;;5076832;28;20365;-80
2023/10/04 09:18:41;;;;;;;;;;;15.10;80.60;;;;;;5075387;28;20381;-80
2023/10/04 09:21:16;;;;;;;;;;;15.10;80.30;;;;;;5077929;28;19914;-80
2023/10/04 09:23:46;;;;;;;;;;;15.20;79.90;;;;;;5072912;28;19912;-80
2023/10/04 09:26:19;;;;;;;;;;;15.30;79.60;;;;;;5075833;28;20377;-81
2023/10/04 09:28:46;;;;;;;;;;;15.20;79.50;;;;;;5071494;28;19939;-78
2023/10/04 09:31:12;;;;;;;;;;;15.40;79.70;;;;;;5074188;28;19913;-80
2023/10/04 09:33:38;;;;;;;;;;;15.50;79.80;;;;;;5075709;28;19908;-81
2023/10/04 09:36:04;;;;;;;;;;;15.60;79.70;;;;;;5073327;28;20028;-81
2023/10/04 09:38:31;;;;;;;;;;;15.60;79.50;;;;;;5077295;28;19909;-79
2023/10/04 09:40:59;;;;;;;;;;;15.60;79.20;;;;;;5075735;28;19912;-80
2023/10/04 09:43:35;;;;;;;;;;;15.50;78.60;;;;;;5072856;28;19912;-81
2023/10/04 09:46:07;;;;;;;;;;;15.50;78.60;;;;;;5076314;28;19958;-80
2023/10/04 09:48:33;;;;;;;;;;;15.50;78.90;;;;;;5075881;28;19916;-81
2023/10/04 09:51:00;;;;;;;;;;;15.60;78.80;;;;;;5074958;28;19912;-81
2023/10/04 09:53:25;;;;;;;;;;;15.60;78.60;;;;;;5074952;28;20301;-81
2023/10/04 09:55:53;;;;;;;;;;;15.60;78.80;;;;;;5076076;28;19915;-81
2023/10/04 09:58:22;;;;;;;;;;;15.70;78.90;;;;;;5079005;28;19956;-81
2023/10/04 10:00:48;;;;;;;;;;;15.80;79.00;;;;;;5079075;28;19919;-80
2023/10/04 10:03:15;;;;;;;;;;;16.00;77.60;;;;;;5086404;28;19952;-81
2023/10/04 10:05:41;;;;;;;;;;;16.00;77.20;;;;;;5078618;28;20308;-78
2023/10/04 10:08:08;;;;;;;;;;;16.00;77.50;;;;;;5071746;28;19917;-80
2023/10/04 10:10:37;;;;;;;;;;;16.10;78.00;;;;;;5071672;28;19923;-80
2023/10/04 10:13:04;;;;;;;;;;;16.10;77.50;;;;;;5068209;28;19921;-78
2023/10/04 10:15:31;;;;;;;;;;;16.20;77.70;;;;;;5075074;28;19962;-80
2023/10/04 10:17:56;;;;;;;;;;;16.40;76.40;;;;;;5075207;28;20304;-79
2023/10/04 10:20:22;;;;;;;;;;;16.40;76.20;;;;;;5070855;28;19920;-80
2023/10/04 10:22:57;;;;;;;;;;;16.40;76.50;;;;;;5071616;28;19912;-81
2023/10/04 10:25:23;;;;;;;;;;;16.40;76.30;;;;;;5070807;28;19918;-80
2023/10/04 10:27:49;;;;;;;;;;;16.30;76.00;;;;;;5073149;28;19991;-79
2023/10/04 10:30:18;;;;;;;;;;;16.30;75.70;;;;;;5072654;28;19943;-81
2023/10/04 10:32:53;;;;;;;;;;;16.40;75.70;;;;;;5074393;28;19909;-80
2023/10/04 10:35:37;;;;;;;;;;;16.40;76.00;;;;;;5073747;28;19920;-81
2023/10/04 10:38:21;;;;;;;;;;;16.40;76.40;;;;;;5088816;28;19947;-80
2023/10/04 10:40:47;;;;;;;;;;;16.40;76.10;;;;;;5073567;28;19995;-79
2023/10/04 10:43:14;;;;;;;;;;;16.30;76.00;;;;;;5075094;28;20420;-81
2023/10/04 10:45:39;;;;;;;;;;;16.40;76.00;;;;;;5073882;28;19999;-80
2023/10/04 10:48:10;;;;;;;;;;;16.50;75.50;;;;;;5072016;28;19951;-81
2023/10/04 10:50:40;;;;;;;;;;;16.50;74.70;;;;;;5074892;28;19913;-81
2023/10/04 10:53:06;;;;;;;;;;;16.60;74.90;;;;;;5072915;28;19959;-80
2023/10/04 10:55:35;;;;;;;;;;;16.70;73.60;;;;;;5073341;28;19909;-80
2023/10/04 10:58:01;;;;;;;;;;;16.80;73.50;;;;;;5073897;28;19916;-80
2023/10/04 11:00:32;;;;;;;;;;;16.80;73.80;;;;;;5074709;28;19927;-80
2023/10/04 11:02:57;;;;;;;;;;;16.90;73.40;;;;;;5073750;28;19959;-81
2023/10/04 11:05:25;;;;;;;;;;;17.00;72.20;;;;;;5075373;28;19913;-81
2023/10/04 11:07:52;;;;;;;;;;;17.00;71.40;;;;;;5069371;28;19993;-81
2023/10/04 11:10:19;;;;;;;;;;;16.90;71.60;;;;;;5075451;28;19939;-80
2023/10/04 11:12:49;;;;;;;;;;;17.00;71.50;;;;;;5070607;28;20016;-81
2023/10/04 11:15:20;;;;;;;;;;;17.00;71.30;;;;;;5072277;28;19943;-81
2023/10/04 11:17:46;;;;;;;;;;;17.10;71.30;;;;;;5072744;28;19920;-80
2023/10/04 11:20:12;;;;;;;;;;;17.10;71.30;;;;;;5072239;28;19913;-81
2023/10/04 11:22:41;;;;;;;;;;;17.10;70.60;;;;;;5073594;28;20435;-78
2023/10/04 11:25:08;;;;;;;;;;;17.20;71.00;;;;;;5072147;28;19915;-81
2023/10/04 11:27:37;;;;;;;;;;;17.10;70.90;;;;;;5073053;28;19909;-81
2023/10/04 11:30:04;;;;;;;;;;;17.10;70.90;;;;;;5069647;28;19966;-81
2023/10/04 11:32:31;;;;;;;;;;;17.10;71.60;;;;;;5071571;28;20336;-81
2023/10/04 11:34:57;;;;;;;;;;;17.10;69.70;;;;;;5073564;28;19999;-80
2023/10/04 11:37:29;;;;;;;;;;;17.10;69.80;;;;;;5074275;28;19990;-81
2023/10/04 11:39:55;;;;;;;;;;;17.20;70.50;;;;;;5075232;28;19908;-80
2023/10/04 11:42:23;;;;;;;;;;;17.10;69.90;;;;;;5073150;28;20293;-80
2023/10/04 11:44:49;;;;;;;;;;;17.10;69.70;;;;;;5073801;28;19920;-80
2023/10/04 11:47:25;;;;;;;;;;;17.10;70.40;;;;;;5079916;28;19959;-81
2023/10/04 11:49:54;;;;;;;;;;;17.10;69.30;;;;;;5079992;28;20380;-81
2023/10/04 11:52:21;;;;;;;;;;;17.10;70.00;;;;;;5079730;28;19999;-81
2023/10/04 11:54:47;;;;;;;;;;;17.10;69.20;;;;;;5077116;28;19923;-80
2023/10/04 11:57:26;;;;;;;;;;;17.10;69.70;;;;;;5077237;28;19917;-80
2023/10/04 11:59:52;;;;;;;;;;;17.10;68.60;;;;;;5077007;28;19912;-79
2023/10/04 12:02:17;;;;;;;;;;;17.00;68.50;;;;;;5074489;28;19942;-82
2023/10/04 12:04:45;;;;;;;;;;;17.10;68.90;;;;;;5077126;28;19919;-79
2023/10/04 12:07:11;;;;;;;;;;;17.20;68.70;;;;;;5074241;28;19912;-81
2023/10/04 12:09:37;;;;;;;;;;;17.20;67.10;;;;;;5077651;28;20015;-81
2023/10/04 12:12:03;;;;;;;;;;;17.30;66.80;;;;;;5079474;28;19952;-81
2023/10/04 12:14:31;;;;;;;;;;;17.50;67.10;;;;;;5078129;28;19953;-81
2023/10/04 12:17:04;;;;;;;;;;;17.50;67.00;;;;;;5078321;28;20365;-81
2023/10/04 12:19:30;;;;;;;;;;;17.50;66.00;;;;;;5079686;28;19951;-80
2023/10/04 12:21:56;;;;;;;;;;;17.50;66.40;;;;;;5077702;28;20137;-81
2023/10/04 12:24:22;;;;;;;;;;;17.60;65.30;;;;;;5079255;28;19948;-80
2023/10/04 12:26:48;;;;;;;;;;;17.60;63.90;;;;;;5078390;28;19908;-80
2023/10/04 12:29:13;;;;;;;;;;;17.60;64.40;;;;;;5074100;28;19916;-80
2023/10/04 12:31:39;;;;;;;;;;;17.60;64.90;;;;;;5079792;28;19919;-80
2023/10/04 12:34:05;;;;;;;;;;;17.60;65.20;;;;;;5078536;28;19909;-81
2023/10/04 12:36:31;;;;;;;;;;;17.60;65.70;;;;;;5080102;28;19955;-80
2023/10/04 12:38:56;;;;;;;;;;;17.50;64.80;;;;;;5079401;28;20381;-81
2023/10/04 12:41:21;;;;;;;;;;;17.60;64.70;;;;;;5071641;28;19955;-81
2023/10/04 12:43:47;;;;;;;;;;;17.50;65.30;;;;;;5081190;28;20011;-80
2023/10/04 12:46:13;;;;;;;;;;;17.50;65.60;;;;;;5078004;28;19915;-81
2023/10/04 12:48:39;;;;;;;;;;;17.60;65.60;;;;;;5081026;28;19923;-81
2023/10/04 12:51:04;;;;;;;;;;;17.60;66.10;;;;;;5078643;28;21126;-80
2023/10/04 12:53:30;;;;;;;;;;;17.60;65.60;;;;;;5078434;28;19999;-80
2023/10/04 12:55:55;;;;;;;;;;;17.50;66.10;;;;;;5078864;28;20440;-81
2023/10/04 12:58:21;;;;;;;;;;;17.60;65.40;;;;;;5079633;28;19913;-81
2023/10/04 13:00:49;;;;;;;;;;;17.60;65.20;;;;;;5076205;28;20388;-81
2023/10/04 13:03:15;;;;;;;;;;;17.60;65.40;;;;;;5076130;28;19936;-81
2023/10/04 13:05:42;;;;;;;;;;;17.60;64.40;;;;;;5077491;28;19916;-79
2023/10/04 13:08:08;;;;;;;;;;;17.60;64.30;;;;;;5069977;28;19917;-81
2023/10/04 13:10:36;;;;;;;;;;;17.60;64.20;;;;;;5078767;28;19908;-81
2023/10/04 13:13:03;;;;;;;;;;;17.70;63.90;;;;;;5077633;28;19949;-81
2023/10/04 13:15:29;;;;;;;;;;;17.70;63.30;;;;;;5076584;28;20412;-81
2023/10/04 13:17:54;;;;;;;;;;;17.70;63.40;;;;;;5077035;28;19913;-82
2023/10/04 13:20:25;;;;;;;;;;;17.60;63.90;;;;;;5076583;28;19916;-81
2023/10/04 13:22:52;;;;;;;;;;;17.70;64.00;;;;;;5077727;28;20378;-79
2023/10/04 13:25:17;;;;;;;;;;;17.70;64.10;;;;;;5077851;28;19912;-81
2023/10/04 13:27:44;;;;;;;;;;;17.70;64.60;;;;;;5075767;28;19977;-80
2023/10/04 13:30:10;;;;;;;;;;;17.80;64.40;;;;;;5078743;28;19916;-81
2023/10/04 13:32:36;;;;;;;;;;;17.70;63.40;;;;;;5074340;28;19912;-80
2023/10/04 13:35:01;;;;;;;;;;;17.70;63.60;;;;;;5075240;28;20511;-79
2023/10/04 13:37:27;;;;;;;;;;;17.70;64.30;;;;;;5076954;28;19940;-81
2023/10/04 13:39:55;;;;;;;;;;;17.60;63.70;;;;;;5076851;28;19951;-81
2023/10/04 13:42:21;;;;;;;;;;;17.60;64.40;;;;;;5075363;28;19916;-81
2023/10/04 13:44:46;;;;;;;;;;;17.60;64.20;;;;;;5076642;28;19916;-80
2023/10/04 13:47:13;;;;;;;;;;;17.50;64.70;;;;;;5075729;28;19912;-81
2023/10/04 13:49:40;;;;;;;;;;;17.60;64.50;;;;;;5077691;28;19919;-81
2023/10/04 13:52:05;;;;;;;;;;;17.60;64.50;;;;;;5076965;28;19955;-81
2023/10/04 13:54:31;;;;;;;;;;;17.60;65.50;;;;;;5075737;28;19913;-81
2023/10/04 13:56:57;;;;;;;;;;;17.60;64.80;;;;;;5073028;28;19912;-81
2023/10/04 13:59:23;;;;;;;;;;;17.60;64.30;;;;;;5074791;28;20436;-81
2023/10/04 14:01:49;;;;;;;;;;;17.60;64.50;;;;;;5074058;28;20373;-80
2023/10/04 14:04:16;;;;;;;;;;;17.50;64.40;;;;;;5074734;28;19913;-81
2023/10/04 14:06:42;;;;;;;;;;;17.50;64.70;;;;;;5070360;28;19909;-79
2023/10/04 14:09:11;;;;;;;;;;;17.50;64.00;;;;;;5076196;28;19927;-80
2023/10/04 14:11:37;;;;;;;;;;;17.50;64.60;;;;;;5075219;28;19912;-81
2023/10/04 14:14:07;;;;;;;;;;;17.50;64.50;;;;;;5072861;28;20015;-81
2023/10/04 14:16:33;;;;;;;;;;;17.60;64.30;;;;;;5074759;28;19951;-80
2023/10/04 14:18:58;;;;;;;;;;;17.60;64.10;;;;;;5075801;28;19916;-80
2023/10/04 14:21:24;;;;;;;;;;;17.50;64.20;;;;;;5076146;28;20011;-81
2023/10/04 14:23:50;;;;;;;;;;;17.50;64.40;;;;;;5077430;28;19974;-81